Terminal Aerodrome Forecast
Issued by NWS

Home | Current Version | Previous Version | Text Only | Print | Product List | Glossary On
Versions: 1 2 3 4 5 6 7 8 9 10 11 12
000
FTUS46 KSEW 160520
TAFPAE
TAF
KPAE 160520Z 1606/1706 08003KT P6SM BKN200
     FM161100 15007KT P6SM SCT080 OVC150
     FM161700 15009KT P6SM BKN070 OVC120=

USA.gov is the U.S. government's official web portal to all federal, state and local government web resources and services.